Newark, OH

3:24 AM EDT on August 28, 2014 (GMT -0400)
Fairfield County | Change Station
CLOSE
Current Station
Airport
Location: Lancaster,
Elevation: 869 ft
Nearby Weather Stations

Elev 869 ft 39.76 °N, 82.66 °W | Updated 31 minutes ago

Clear
Clear
64 °F
Feels Like 64 °F
N
0
Wind Variable Wind from North

Today
High -- | Low -- °F
--% Chance of Precip.
Yesterday
High -- | Low -- °F
Precip. -- in
6:53 AM 8:07 PM
Waxing Crescent, 7% visible
Pressure 30.06 in
Visibility 8.0 miles
Clouds Clear
Dew Point 61 °F
Humidity 90%
Rainfall 0.00 in
Snow Depth Not available.
UV 0 out of 12
Pollen 10.60 out of 12
Ozone Good
PM2.5 Moderate
Flu Activity Not available.
METAR KLHQ 280653Z AUTO 00000KT 8SM CLR 18/16 A3008 RMK AO2 SLP180 T01780161

More Conditions Fewer Conditions

Pressure 30.06 in
Visibility 8.0 miles
Clouds Clear
Dew Point 61 °F
Humidity 90%
Rainfall 0.00 in
Snow Depth Not available.
UV 0 out of 12
Pollen 10.60 out of 12
Ozone Good
PM2.5 Moderate
Flu Activity Not available.
METAR KLHQ 280653Z AUTO 00000KT 8SM CLR 18/16 A3008 RMK AO2 SLP180 T01780161

More Conditions Fewer Conditions

10-Day Weather Forecast

Almanac

Astronomy

Aug. 28, 2014 Rise Set
Actual Time 6:53 AM EDT 8:07 PM EDT
Civil Twilight 6:25 AM EDT 8:35 PM EDT
Nautical Twilight 5:51 AM EDT 9:08 PM EDT
Astronomical Twilight 5:16 AM EDT 9:43 PM EDT
Moon 9:44 AM EDT 9:30 PM EDT
Length of Visible Light 14h 10m
Length of Day
13h 14m
Tomorrow will be 2m 30s shorter.
Waxing Crescent, 7% of the Moon is Illuminated
Today
Waxing Crescent
Sep 2
First Quarter
Sep 8
Full
Sep 15
Last Quarter
Sep 24
New

Today's Extremes

State Highs State Lows

Community

WunderPhotos

Upload Photos

1,747,912 photos uploaded!

Nearby

Air Quality

  Air Quality AQ Index Pollutant
Yesterday Moderate
PM2.5
Yesterday Good
OZONE
Current Moderate
PM2.5
Current Good
OZONE
Thursday Moderate
OZONE
Thursday Good
PM2.5
Friday Moderate
OZONE
Friday Moderate
PM2.5
Saturday Moderate
OZONE
Saturday Moderate
PM2.5
Sunday Good
PM2.5
Sunday Good
OZONE
Monday Moderate
OZONE
Monday Moderate
PM2.5

Snow Depth

Station Depth Elevation
No new snow has been reported.

Earthquake Activity

City Distance Mag. Time & Date
No recent earthquake activity has been reported nearby.
Minimum magnitude displayed is 2.5.

Coastal Water Temperatures

Place Temperature
No Stations Reporting

Nearby Weather Stations